Time;durP1;ratioP1;P1;durP2;ratioP2;P2;SDS_P1;SDS_P2;PMS_P1;PMS_P2;Temp;Humidity;BMP_temperature;BMP_pressure;BME280_temperature;BME280_humidity;BME280_pressure;Samples;Min_cycle;Max_cycle;Signal;HPM_P1;HPM_P2
2023/02/23 00:08:19;;;;;;;8.67;5.60;;;0.00;79.00;;;;;;4621349;30;20492;-81
2023/02/23 00:28:30;;;;;;;8.63;5.93;;;-0.40;79.50;;;;;;4684525;29;20205;-81
2023/02/23 01:03:30;;;;;;;11.57;6.80;;;-0.40;80.70;;;;;;4717694;29;20492;-85
2023/02/23 01:29:18;;;;;;;5.53;4.03;;;-0.50;81.20;;;;;;4698875;29;20213;-84
2023/02/23 01:49:31;;;;;;;9.70;6.23;;;-0.50;82.40;;;;;;4606982;30;20231;-81
2023/02/23 02:25:01;;;;;;;9.00;5.97;;;-0.70;85.00;;;;;;4708880;29;20632;-81
2023/02/23 02:45:27;;;;;;;9.90;5.43;;;-0.90;88.00;;;;;;4574265;30;20238;-82
2023/02/23 04:36:50;;;;;;;11.63;7.07;;;-0.30;93.30;;;;;;4644921;30;20225;-83
2023/02/23 05:11:58;;;;;;;10.73;7.33;;;-0.10;93.90;;;;;;4668228;29;20392;-84
2023/02/23 06:18:24;;;;;;;11.47;5.90;;;0.40;92.10;;;;;;4746399;29;20257;-79
2023/02/23 07:19:19;;;;;;;10.87;6.23;;;1.00;88.50;;;;;;4553794;30;21119;-81
2023/02/23 07:59:14;;;;;;;10.63;6.00;;;1.70;85.50;;;;;;4579511;30;20712;-79
2023/02/23 08:19:50;;;;;;;10.80;6.43;;;2.20;84.10;;;;;;4627216;30;20953;-85
2023/02/23 08:40:26;;;;;;;11.93;6.97;;;2.40;83.70;;;;;;4681967;30;20304;-87
2023/02/23 09:05:27;;;;;;;11.70;7.37;;;2.50;84.20;;;;;;4722427;29;20443;-83
2023/02/23 09:46:14;;;;;;;13.43;8.03;;;3.60;82.10;;;;;;4710550;29;20932;-86
2023/02/23 10:21:24;;;;;;;11.27;7.40;;;3.90;82.40;;;;;;4673068;29;20572;-83
2023/02/23 10:47:01;;;;;;;12.00;8.10;;;3.90;82.70;;;;;;4640647;30;20627;-83
2023/02/23 11:02:35;;;;;;;11.70;7.77;;;4.30;82.40;;;;;;4621025;30;21369;-83
2023/02/23 11:27:51;;;;;;;10.40;7.90;;;4.70;82.00;;;;;;4872451;28;20232;-84
2023/02/23 12:07:47;;;;;;;10.37;6.73;;;5.40;80.90;;;;;;4825958;28;21311;-84
2023/02/23 12:38:52;;;;;;;9.90;6.60;;;5.80;80.20;;;;;;4738779;29;20251;-81
2023/02/23 13:08:46;;;;;;;11.00;6.70;;;5.90;80.20;;;;;;4649465;30;20246;-88
2023/02/23 13:24:35;;;;;;;11.37;6.87;;;5.90;80.10;;;;;;4573742;30;20696;-82
2023/02/23 13:49:46;;;;;;;12.77;7.47;;;6.00;80.50;;;;;;4671540;30;20235;-84
2023/02/23 14:25:28;;;;;;;9.57;6.97;;;5.90;80.80;;;;;;4666784;29;20614;-83
2023/02/23 14:29:53;;;;;;;9.73;6.27;;;5.90;80.80;;;;;;4644028;29;21014;-84
2023/02/23 14:50:26;;;;;;;10.80;7.93;;;5.90;81.20;;;;;;4658881;29;20230;-83
2023/02/23 15:11:05;;;;;;;11.90;7.77;;;5.80;81.60;;;;;;4737713;29;20222;-83
2023/02/23 15:40:52;;;;;;;10.80;8.73;;;5.30;83.00;;;;;;4549847;30;20573;-86
2023/02/23 16:11:35;;;;;;;13.30;9.23;;;4.50;85.80;;;;;;4585888;30;20237;-82
2023/02/23 16:37:21;;;;;;;15.40;10.47;;;3.90;87.70;;;;;;4667560;30;20220;-82
2023/02/23 16:41:41;;;;;;;17.47;10.83;;;3.70;88.30;;;;;;4649455;29;21209;-84
2023/02/23 17:12:46;;;;;;;24.20;13.47;;;3.30;90.50;;;;;;4734929;29;20211;-85
2023/02/23 17:43:08;;;;;;;22.13;13.97;;;3.30;90.90;;;;;;4787953;29;20325;-83
2023/02/23 18:23:49;;;;;;;21.30;13.97;;;3.60;90.40;;;;;;4882752;28;20258;-82
2023/02/23 18:28:10;;;;;;;24.97;15.00;;;3.70;90.40;;;;;;4848414;28;20540;-81
2023/02/23 18:48:27;;;;;;;23.13;15.23;;;3.80;90.30;;;;;;4713505;29;20493;-81
2023/02/23 19:08:52;;;;;;;22.33;14.47;;;3.60;91.00;;;;;;4616862;30;20278;-84
2023/02/23 19:39:15;;;;;;;23.63;15.33;;;3.50;92.10;;;;;;4727248;29;20309;-79
2023/02/23 19:59:28;;;;;;;22.80;15.73;;;3.40;93.00;;;;;;4702478;29;20550;-86
2023/02/23 20:30:17;;;;;;;24.73;17.77;;;2.90;95.30;;;;;;4659023;30;20225;-83
2023/02/23 20:50:37;;;;;;;30.30;18.70;;;2.60;97.90;;;;;;4615479;30;20244;-81
2023/02/23 21:36:26;;;;;;;33.67;21.33;;;2.10;99.90;;;;;;4606401;30;22348;-83
2023/02/23 22:41:52;;;;;;;40.50;24.20;;;2.20;99.90;;;;;;4765519;28;20698;-81
2023/02/23 23:07:45;;;;;;;45.60;26.37;;;2.60;99.90;;;;;;4791970;29;20214;-82
2023/02/23 23:12:03;;;;;;;44.67;26.70;;;2.60;99.90;;;;;;4724475;29;20258;-79
2023/02/23 23:43:08;;;;;;;41.50;26.50;;;2.80;99.90;;;;;;4816495;29;20575;-81
